Time;durP1;ratioP1;P1;durP2;ratioP2;P2;SDS_P1;SDS_P2;PMS_P1;PMS_P2;Temp;Humidity;BMP_temperature;BMP_pressure;BME280_temperature;BME280_humidity;BME280_pressure;Samples;Min_cycle;Max_cycle;Signal;HPM_P1;HPM_P2
2022/01/05 00:00:45;;;;;;;2.25;2.20;;;;;;;;;;5125092;28;20183;-66
2022/01/05 00:03:12;;;;;;;1.70;1.70;;;;;;;;;;5124379;28;20192;-66
2022/01/05 00:05:40;;;;;;;2.20;2.00;;;;;;;;;;5124010;28;20202;-66
2022/01/05 00:08:06;;;;;;;1.70;1.70;;;;;;;;;;5124225;28;20191;-66
2022/01/05 00:10:32;;;;;;;1.98;1.88;;;;;;;;;;5124239;28;20202;-66
2022/01/05 00:12:59;;;;;;;1.75;1.65;;;;;;;;;;5124346;28;20389;-66
2022/01/05 00:15:25;;;;;;;2.45;1.50;;;;;;;;;;5123650;28;20198;-66
2022/01/05 00:17:52;;;;;;;1.92;1.77;;;;;;;;;;5124261;28;20195;-66
2022/01/05 00:20:18;;;;;;;1.40;1.40;;;;;;;;;;5124342;28;20202;-66
2022/01/05 00:22:46;;;;;;;1.20;1.20;;;;;;;;;;5123897;28;20195;-66
2022/01/05 00:25:12;;;;;;;1.38;1.38;;;;;;;;;;5123986;28;20195;-66
2022/01/05 00:27:39;;;;;;;1.42;1.42;;;;;;;;;;5124207;28;20377;-66
2022/01/05 00:30:06;;;;;;;0.80;0.80;;;;;;;;;;5124120;28;20202;-66
2022/01/05 00:32:32;;;;;;;0.70;0.70;;;;;;;;;;5123979;28;20202;-66
2022/01/05 00:34:59;;;;;;;0.82;0.82;;;;;;;;;;5123423;28;20195;-66
2022/01/05 00:37:25;;;;;;;0.70;0.70;;;;;;;;;;5123923;28;20561;-66
2022/01/05 00:39:53;;;;;;;0.68;0.68;;;;;;;;;;5123739;28;20195;-66
2022/01/05 00:42:19;;;;;;;0.80;0.80;;;;;;;;;;5123804;28;20195;-67
2022/01/05 00:44:46;;;;;;;0.60;0.60;;;;;;;;;;5123176;28;20215;-66
2022/01/05 00:47:12;;;;;;;0.50;0.50;;;;;;;;;;5123299;28;20202;-66
2022/01/05 00:49:39;;;;;;;0.60;0.60;;;;;;;;;;5123661;28;20366;-66
2022/01/05 00:52:05;;;;;;;0.50;0.50;;;;;;;;;;5123531;28;20195;-66
2022/01/05 00:54:32;;;;;;;0.60;0.60;;;;;;;;;;5123475;28;20517;-66
2022/01/05 00:56:59;;;;;;;0.60;0.60;;;;;;;;;;5122992;28;20218;-66
2022/01/05 00:59:26;;;;;;;0.50;0.50;;;;;;;;;;5123458;28;20203;-66
2022/01/05 01:01:53;;;;;;;0.47;0.47;;;;;;;;;;5123445;28;20199;-66
2022/01/05 01:04:19;;;;;;;1.63;0.50;;;;;;;;;;5123204;28;20195;-66
2022/01/05 01:06:45;;;;;;;1.75;0.43;;;;;;;;;;5122848;28;20485;-66
2022/01/05 01:09:13;;;;;;;0.77;0.40;;;;;;;;;;5123342;28;20195;-66
2022/01/05 01:11:39;;;;;;;0.45;0.40;;;;;;;;;;5122960;28;20540;-66
2022/01/05 01:14:07;;;;;;;1.58;0.60;;;;;;;;;;5123068;28;20470;-66
2022/01/05 01:16:33;;;;;;;0.50;0.50;;;;;;;;;;5122980;28;20223;-66
2022/01/05 01:19:00;;;;;;;0.50;0.50;;;;;;;;;;5122936;28;20206;-66
2022/01/05 01:21:26;;;;;;;0.35;0.35;;;;;;;;;;5123144;28;20202;-66
2022/01/05 01:23:55;;;;;;;0.40;0.40;;;;;;;;;;5122908;28;20195;-66
2022/01/05 01:26:23;;;;;;;0.65;0.40;;;;;;;;;;5122898;28;20187;-66
2022/01/05 01:28:49;;;;;;;0.40;0.40;;;;;;;;;;5123164;28;20491;-66
2022/01/05 01:31:17;;;;;;;0.40;0.40;;;;;;;;;;5122896;28;20195;-66
2022/01/05 01:33:44;;;;;;;0.85;0.60;;;;;;;;;;5122885;28;20316;-66
2022/01/05 01:36:10;;;;;;;0.40;0.40;;;;;;;;;;5122759;28;20195;-66
2022/01/05 01:38:37;;;;;;;0.30;0.30;;;;;;;;;;5122790;28;20388;-66
2022/01/05 01:41:03;;;;;;;0.80;0.57;;;;;;;;;;5123381;28;20195;-66
2022/01/05 01:43:30;;;;;;;0.40;0.40;;;;;;;;;;5123056;28;20491;-66
2022/01/05 01:45:56;;;;;;;0.40;0.40;;;;;;;;;;5121722;28;20222;-66
2022/01/05 01:48:24;;;;;;;0.45;0.45;;;;;;;;;;5102505;28;20195;-66
2022/01/05 01:50:50;;;;;;;0.50;0.50;;;;;;;;;;5102199;28;20196;-66
2022/01/05 01:53:17;;;;;;;0.30;0.30;;;;;;;;;;5102456;28;20196;-66
2022/01/05 01:55:43;;;;;;;0.65;0.43;;;;;;;;;;5104165;28;20518;-66
2022/01/05 01:58:10;;;;;;;0.30;0.30;;;;;;;;;;5122374;28;20222;-66
2022/01/05 02:00:36;;;;;;;0.50;0.50;;;;;;;;;;5122610;28;20207;-66
2022/01/05 02:03:03;;;;;;;0.30;0.30;;;;;;;;;;5122755;28;20195;-66
2022/01/05 02:05:31;;;;;;;0.20;0.20;;;;;;;;;;5122380;28;20502;-66
2022/01/05 02:07:57;;;;;;;0.85;0.40;;;;;;;;;;5122698;28;20198;-66
2022/01/05 02:10:25;;;;;;;1.45;0.40;;;;;;;;;;5122585;28;20225;-66
2022/01/05 02:12:51;;;;;;;0.63;0.50;;;;;;;;;;5122393;28;20195;-66
2022/01/05 02:15:18;;;;;;;0.40;0.40;;;;;;;;;;5122198;28;20209;-66
2022/01/05 02:17:52;;;;;;;0.30;0.30;;;;;;;;;;5123863;28;20497;-66
2022/01/05 02:20:21;;;;;;;0.22;0.22;;;;;;;;;;5126695;28;20380;-66
2022/01/05 02:22:49;;;;;;;0.30;0.30;;;;;;;;;;5126540;28;20195;-66
2022/01/05 02:25:15;;;;;;;0.30;0.30;;;;;;;;;;5125755;28;20206;-66
2022/01/05 02:27:42;;;;;;;0.38;0.38;;;;;;;;;;5126248;28;20191;-66
2022/01/05 02:30:10;;;;;;;0.20;0.20;;;;;;;;;;5126420;28;20404;-65
2022/01/05 02:32:36;;;;;;;0.30;0.30;;;;;;;;;;5126513;28;20491;-65
2022/01/05 02:35:03;;;;;;;0.38;0.38;;;;;;;;;;5126458;28;20191;-65
2022/01/05 02:37:29;;;;;;;3.50;0.32;;;;;;;;;;5126106;28;20211;-65
2022/01/05 02:39:57;;;;;;;1.30;0.30;;;;;;;;;;5126070;28;20195;-65
2022/01/05 02:42:31;;;;;;;0.30;0.30;;;;;;;;;;5126088;28;20203;-65
2022/01/05 02:44:58;;;;;;;0.55;0.40;;;;;;;;;;5126003;28;20212;-65
2022/01/05 02:47:24;;;;;;;0.30;0.30;;;;;;;;;;5125630;28;20518;-65
2022/01/05 02:49:51;;;;;;;0.20;0.20;;;;;;;;;;5126091;28;20504;-67
2022/01/05 02:52:17;;;;;;;0.73;0.30;;;;;;;;;;5127596;28;20196;-67
2022/01/05 02:54:43;;;;;;;0.22;0.22;;;;;;;;;;5125524;28;20214;-68
2022/01/05 02:57:11;;;;;;;0.30;0.30;;;;;;;;;;5125454;28;20215;-67
2022/01/05 02:59:37;;;;;;;0.25;0.25;;;;;;;;;;5125729;27;20410;-67
2022/01/05 03:02:04;;;;;;;0.40;0.40;;;;;;;;;;5125658;28;20194;-67
2022/01/05 03:04:31;;;;;;;0.30;0.30;;;;;;;;;;5125386;28;20197;-68
2022/01/05 03:06:57;;;;;;;0.28;0.28;;;;;;;;;;5125652;28;20384;-65
2022/01/05 03:09:23;;;;;;;0.20;0.20;;;;;;;;;;5125419;28;20195;-65
2022/01/05 03:11:50;;;;;;;0.35;0.35;;;;;;;;;;5125439;28;20203;-65
2022/01/05 03:14:18;;;;;;;0.63;0.30;;;;;;;;;;5125218;28;20195;-65
2022/01/05 03:16:44;;;;;;;0.30;0.30;;;;;;;;;;5124985;28;20213;-65
2022/01/05 03:19:10;;;;;;;0.20;0.20;;;;;;;;;;5125491;28;20558;-65
2022/01/05 03:21:37;;;;;;;1.75;0.30;;;;;;;;;;5125618;28;20202;-65
2022/01/05 03:24:03;;;;;;;1.85;0.30;;;;;;;;;;5125507;28;20365;-65
2022/01/05 03:26:30;;;;;;;0.63;0.30;;;;;;;;;;5124967;28;20187;-65
2022/01/05 03:28:56;;;;;;;0.90;0.30;;;;;;;;;;5123743;28;20190;-65
2022/01/05 03:31:24;;;;;;;0.20;0.20;;;;;;;;;;5124996;28;20195;-65
2022/01/05 03:33:50;;;;;;;0.73;0.30;;;;;;;;;;5125199;28;20202;-65
2022/01/05 03:36:17;;;;;;;0.22;0.22;;;;;;;;;;5125035;28;20191;-65
2022/01/05 03:38:43;;;;;;;0.20;0.20;;;;;;;;;;5124896;28;20222;-65
2022/01/05 03:41:10;;;;;;;0.20;0.20;;;;;;;;;;5125106;28;20394;-65
2022/01/05 03:43:36;;;;;;;0.20;0.20;;;;;;;;;;5124576;28;20202;-65
2022/01/05 03:46:02;;;;;;;0.65;0.20;;;;;;;;;;5124540;28;20425;-67
2022/01/05 03:48:30;;;;;;;0.20;0.20;;;;;;;;;;5124803;28;20191;-67
2022/01/05 03:50:57;;;;;;;0.20;0.20;;;;;;;;;;5124179;28;20191;-67
2022/01/05 03:53:23;;;;;;;0.15;0.15;;;;;;;;;;5124695;28;20496;-67
2022/01/05 03:55:49;;;;;;;0.30;0.30;;;;;;;;;;5128793;28;20195;-67
2022/01/05 03:58:16;;;;;;;0.90;0.20;;;;;;;;;;5127440;28;20423;-67
2022/01/05 04:00:44;;;;;;;0.20;0.20;;;;;;;;;;5127921;28;20179;-67
2022/01/05 04:03:10;;;;;;;0.20;0.20;;;;;;;;;;5127843;28;20195;-67
2022/01/05 04:05:38;;;;;;;0.25;0.22;;;;;;;;;;5127775;28;20207;-67
2022/01/05 04:08:05;;;;;;;0.20;0.20;;;;;;;;;;5127917;28;20198;-67
2022/01/05 04:10:31;;;;;;;0.20;0.20;;;;;;;;;;5125385;28;20195;-67
2022/01/05 04:12:58;;;;;;;0.25;0.10;;;;;;;;;;5123389;28;20191;-67
2022/01/05 04:15:24;;;;;;;0.10;0.10;;;;;;;;;;5124273;28;20195;-67
2022/01/05 04:17:50;;;;;;;0.20;0.20;;;;;;;;;;5124209;28;20301;-67
2022/01/05 04:20:17;;;;;;;0.20;0.20;;;;;;;;;;5123770;28;20196;-67
2022/01/05 04:22:45;;;;;;;0.90;0.10;;;;;;;;;;5123738;28;20258;-67
2022/01/05 04:25:12;;;;;;;0.20;0.20;;;;;;;;;;5123539;28;20202;-67
2022/01/05 04:27:38;;;;;;;0.20;0.20;;;;;;;;;;5123934;28;20191;-68
2022/01/05 04:30:06;;;;;;;0.45;0.20;;;;;;;;;;5123960;28;20210;-68
2022/01/05 04:32:34;;;;;;;1.13;1.10;;;;;;;;;;5124104;28;20199;-67
2022/01/05 04:35:00;;;;;;;0.20;0.20;;;;;;;;;;5123993;28;20499;-67
2022/01/05 04:37:27;;;;;;;0.20;0.20;;;;;;;;;;5124040;28;20199;-67
2022/01/05 04:39:54;;;;;;;0.13;0.13;;;;;;;;;;5123243;28;20202;-67
2022/01/05 04:42:21;;;;;;;0.20;0.20;;;;;;;;;;5123446;28;20195;-67
2022/01/05 04:44:47;;;;;;;0.30;0.30;;;;;;;;;;5123612;28;20390;-65
2022/01/05 04:47:14;;;;;;;0.20;0.20;;;;;;;;;;5123458;28;20203;-65
2022/01/05 04:49:40;;;;;;;0.32;0.20;;;;;;;;;;5123769;28;20191;-65
2022/01/05 04:52:07;;;;;;;0.52;0.10;;;;;;;;;;5123064;28;20191;-65
2022/01/05 04:54:33;;;;;;;0.43;0.20;;;;;;;;;;5122971;28;20194;-65
2022/01/05 04:57:01;;;;;;;0.22;0.22;;;;;;;;;;5122087;28;20198;-65
2022/01/05 04:59:28;;;;;;;0.20;0.20;;;;;;;;;;5121950;28;20219;-65
2022/01/05 05:01:54;;;;;;;0.30;0.30;;;;;;;;;;5123422;28;20464;-65
2022/01/05 05:04:21;;;;;;;0.20;0.20;;;;;;;;;;5123553;28;20202;-65
2022/01/05 05:06:49;;;;;;;0.28;0.28;;;;;;;;;;5122939;28;20202;-66
2022/01/05 05:09:15;;;;;;;0.30;0.30;;;;;;;;;;5122982;28;20214;-65
2022/01/05 05:11:41;;;;;;;0.20;0.20;;;;;;;;;;5122880;28;20199;-65
2022/01/05 05:14:09;;;;;;;0.35;0.20;;;;;;;;;;5123334;28;20362;-65
2022/01/05 05:16:36;;;;;;;0.17;0.17;;;;;;;;;;5122941;28;20195;-65
2022/01/05 05:19:02;;;;;;;0.55;0.20;;;;;;;;;;5122953;28;20217;-65
2022/01/05 05:21:29;;;;;;;0.40;0.30;;;;;;;;;;5123079;28;20195;-65
2022/01/05 05:23:55;;;;;;;0.40;0.40;;;;;;;;;;5122875;28;20203;-65
2022/01/05 05:26:22;;;;;;;1.10;0.57;;;;;;;;;;5123088;28;20202;-65
2022/01/05 05:28:48;;;;;;;0.20;0.20;;;;;;;;;;5123470;28;20373;-65
2022/01/05 05:31:16;;;;;;;0.38;0.38;;;;;;;;;;5122604;28;20191;-65
2022/01/05 05:33:44;;;;;;;0.40;0.40;;;;;;;;;;5122777;28;20202;-65
2022/01/05 05:36:11;;;;;;;0.22;0.22;;;;;;;;;;5122867;28;20194;-65
2022/01/05 05:38:37;;;;;;;0.70;0.30;;;;;;;;;;5122480;28;20214;-65
2022/01/05 05:41:04;;;;;;;0.45;0.45;;;;;;;;;;5122900;28;20221;-65
2022/01/05 05:43:30;;;;;;;0.43;0.43;;;;;;;;;;5122794;28;20202;-65
2022/01/05 05:45:57;;;;;;;0.52;0.52;;;;;;;;;;5122613;28;20566;-65
2022/01/05 05:48:25;;;;;;;0.70;0.70;;;;;;;;;;5122543;28;20236;-65
2022/01/05 05:50:51;;;;;;;0.95;0.70;;;;;;;;;;5122678;28;20191;-64
2022/01/05 05:53:17;;;;;;;4.03;0.82;;;;;;;;;;5125577;28;20581;-65
2022/01/05 05:55:44;;;;;;;0.75;0.75;;;;;;;;;;5126859;28;20195;-66
2022/01/05 05:58:10;;;;;;;1.23;0.90;;;;;;;;;;5126964;28;20222;-66
2022/01/05 06:00:36;;;;;;;0.80;0.80;;;;;;;;;;5126761;28;20194;-66
2022/01/05 06:03:03;;;;;;;1.25;1.13;;;;;;;;;;5126718;28;20195;-66
2022/01/05 06:05:31;;;;;;;1.30;1.10;;;;;;;;;;5126561;28;20193;-66
2022/01/05 06:07:58;;;;;;;1.20;1.20;;;;;;;;;;5126993;28;20203;-66
2022/01/05 06:10:24;;;;;;;2.25;1.40;;;;;;;;;;5126509;28;20390;-66
2022/01/05 06:12:51;;;;;;;1.35;1.35;;;;;;;;;;5126583;28;20202;-68
2022/01/05 06:15:17;;;;;;;1.42;1.33;;;;;;;;;;5126565;28;20377;-69
2022/01/05 06:17:43;;;;;;;1.20;1.20;;;;;;;;;;5126163;28;20198;-69
2022/01/05 06:20:11;;;;;;;1.40;1.30;;;;;;;;;;5126344;28;20202;-69
2022/01/05 06:22:40;;;;;;;1.40;1.40;;;;;;;;;;5126405;28;20195;-69
2022/01/05 06:25:07;;;;;;;1.45;1.42;;;;;;;;;;5126506;28;20195;-69
2022/01/05 06:27:33;;;;;;;1.20;1.10;;;;;;;;;;5126024;28;20202;-69
2022/01/05 06:30:04;;;;;;;1.52;1.35;;;;;;;;;;5126355;28;20183;-69
2022/01/05 06:32:30;;;;;;;1.42;1.42;;;;;;;;;;5126542;28;20183;-69
2022/01/05 06:35:06;;;;;;;1.20;1.20;;;;;;;;;;5125943;28;20195;-69
2022/01/05 06:37:32;;;;;;;3.55;1.60;;;;;;;;;;5125833;28;20195;-68
2022/01/05 06:40:00;;;;;;;1.70;1.60;;;;;;;;;;5126312;28;20523;-68
2022/01/05 06:42:26;;;;;;;1.95;1.50;;;;;;;;;;5126117;28;20195;-69
2022/01/05 06:44:53;;;;;;;1.88;1.80;;;;;;;;;;5125800;28;20223;-69
2022/01/05 06:47:19;;;;;;;1.67;1.58;;;;;;;;;;5125717;28;20202;-67
2022/01/05 06:49:45;;;;;;;1.58;1.58;;;;;;;;;;5126148;28;20491;-66
2022/01/05 06:52:12;;;;;;;2.53;1.73;;;;;;;;;;5125649;28;20202;-65
2022/01/05 06:54:39;;;;;;;1.88;1.70;;;;;;;;;;5125355;28;20187;-67
2022/01/05 06:57:07;;;;;;;1.67;1.58;;;;;;;;;;5125707;28;20199;-67
2022/01/05 06:59:34;;;;;;;1.40;1.40;;;;;;;;;;5126052;28;20557;-67
2022/01/05 07:02:00;;;;;;;1.90;1.73;;;;;;;;;;5125664;28;20202;-67
2022/01/05 07:04:26;;;;;;;1.95;1.85;;;;;;;;;;5125187;28;20195;-68
2022/01/05 07:06:53;;;;;;;1.75;1.58;;;;;;;;;;5125555;28;20191;-60
2022/01/05 07:09:19;;;;;;;1.90;1.80;;;;;;;;;;5125594;28;20198;-61
2022/01/05 07:11:46;;;;;;;1.65;1.52;;;;;;;;;;5125902;28;20195;-60
2022/01/05 07:14:13;;;;;;;3.15;1.30;;;;;;;;;;5121126;28;20389;-56
2022/01/05 07:16:40;;;;;;;1.52;1.45;;;;;;;;;;5110388;27;20207;-53
2022/01/05 07:19:06;;;;;;;1.17;1.17;;;;;;;;;;5118486;28;20261;-54
2022/01/05 07:21:33;;;;;;;1.33;1.13;;;;;;;;;;5118277;27;20409;-54
2022/01/05 07:24:03;;;;;;;1.95;1.15;;;;;;;;;;5118552;28;20211;-55
2022/01/05 07:26:31;;;;;;;1.48;1.10;;;;;;;;;;5118795;28;20230;-57
2022/01/05 07:28:58;;;;;;;1.15;0.82;;;;;;;;;;5118045;28;20199;-59
2022/01/05 07:31:31;;;;;;;0.90;0.90;;;;;;;;;;5119050;28;20207;-58
2022/01/05 07:33:58;;;;;;;0.90;0.90;;;;;;;;;;5119303;28;20499;-58
2022/01/05 07:36:24;;;;;;;0.88;0.88;;;;;;;;;;5112950;28;20203;-59
2022/01/05 07:38:51;;;;;;;0.98;0.93;;;;;;;;;;5101320;28;20501;-59
2022/01/05 07:41:17;;;;;;;2.05;1.00;;;;;;;;;;5102391;28;20204;-59
2022/01/05 07:43:43;;;;;;;0.90;0.90;;;;;;;;;;5119075;28;20213;-59
2022/01/05 07:46:10;;;;;;;2.20;1.05;;;;;;;;;;5118649;28;20597;-60
2022/01/05 07:48:38;;;;;;;1.20;1.10;;;;;;;;;;5137748;27;20202;-60
2022/01/05 07:51:04;;;;;;;1.45;1.20;;;;;;;;;;5124876;27;20207;-59
2022/01/05 07:53:31;;;;;;;1.65;1.52;;;;;;;;;;5118801;28;20218;-60
2022/01/05 07:55:57;;;;;;;1.60;1.50;;;;;;;;;;5118213;28;20207;-59
2022/01/05 07:58:23;;;;;;;1.40;1.30;;;;;;;;;;5118054;28;20214;-60
2022/01/05 08:00:50;;;;;;;2.88;1.30;;;;;;;;;;5114396;28;20219;-60
2022/01/05 08:03:16;;;;;;;1.77;1.00;;;;;;;;;;5118867;28;20207;-59
2022/01/05 08:05:44;;;;;;;2.67;1.40;;;;;;;;;;5117108;28;20199;-59
2022/01/05 08:08:10;;;;;;;1.88;1.13;;;;;;;;;;5118092;28;20305;-60
2022/01/05 08:10:37;;;;;;;3.90;1.08;;;;;;;;;;5127486;27;20199;-59
2022/01/05 08:13:03;;;;;;;3.03;1.08;;;;;;;;;;5118868;28;20214;-58
2022/01/05 08:15:30;;;;;;;2.75;1.85;;;;;;;;;;5117093;28;20482;-59
2022/01/05 08:17:56;;;;;;;1.55;1.30;;;;;;;;;;5118129;28;20511;-59
2022/01/05 08:20:23;;;;;;;3.00;1.70;;;;;;;;;;5118082;28;20223;-55
2022/01/05 08:22:50;;;;;;;4.43;1.27;;;;;;;;;;5117391;28;21317;-56
2022/01/05 08:25:18;;;;;;;3.15;1.67;;;;;;;;;;5117947;28;20616;-54
2022/01/05 08:27:47;;;;;;;3.83;1.73;;;;;;;;;;5123749;27;20191;-56
2022/01/05 08:30:14;;;;;;;1.63;1.45;;;;;;;;;;5130301;27;20233;-57
2022/01/05 08:32:41;;;;;;;2.55;1.70;;;;;;;;;;5134864;27;20427;-57
2022/01/05 08:35:07;;;;;;;3.17;1.98;;;;;;;;;;5117817;28;20214;-57
2022/01/05 08:37:34;;;;;;;3.38;2.08;;;;;;;;;;5117665;28;20207;-56
2022/01/05 08:40:01;;;;;;;4.75;2.00;;;;;;;;;;5117565;28;20471;-57
2022/01/05 08:42:28;;;;;;;10.18;3.88;;;;;;;;;;5118333;28;20207;-57
2022/01/05 08:44:54;;;;;;;2.80;2.60;;;;;;;;;;5117653;28;20222;-58
2022/01/05 08:47:21;;;;;;;3.20;2.22;;;;;;;;;;5116200;28;20207;-56
2022/01/05 08:49:47;;;;;;;2.20;1.60;;;;;;;;;;5117728;28;20206;-57
2022/01/05 08:52:14;;;;;;;2.97;1.85;;;;;;;;;;5117511;28;20527;-57
2022/01/05 08:54:40;;;;;;;5.40;1.77;;;;;;;;;;5116186;27;20203;-57
2022/01/05 08:57:08;;;;;;;4.53;1.88;;;;;;;;;;5117529;28;20410;-56
2022/01/05 08:59:36;;;;;;;3.40;1.67;;;;;;;;;;5117822;28;20226;-57
2022/01/05 09:02:03;;;;;;;4.28;2.10;;;;;;;;;;5117165;28;20282;-57
2022/01/05 09:04:29;;;;;;;3.45;2.10;;;;;;;;;;5117127;28;20207;-57
2022/01/05 09:06:56;;;;;;;5.32;2.08;;;;;;;;;;5117746;28;20229;-55
2022/01/05 09:09:22;;;;;;;3.90;2.00;;;;;;;;;;5123531;27;20595;-55
2022/01/05 09:11:48;;;;;;;3.92;1.67;;;;;;;;;;5123712;27;20202;-56
2022/01/05 09:14:16;;;;;;;8.20;1.92;;;;;;;;;;5117611;28;20214;-56
2022/01/05 09:16:42;;;;;;;3.78;1.73;;;;;;;;;;5117182;28;20207;-56
2022/01/05 09:19:09;;;;;;;5.13;1.63;;;;;;;;;;5116880;28;20242;-55
2022/01/05 09:21:36;;;;;;;4.10;1.75;;;;;;;;;;5117301;28;20229;-55
2022/01/05 09:24:03;;;;;;;3.58;1.77;;;;;;;;;;5117516;28;20235;-55
2022/01/05 09:26:29;;;;;;;2.70;1.67;;;;;;;;;;5116319;28;20219;-56
2022/01/05 09:28:55;;;;;;;6.22;1.98;;;;;;;;;;5117290;28;20207;-57
2022/01/05 09:31:23;;;;;;;3.10;1.60;;;;;;;;;;5121103;28;20451;-61
2022/01/05 09:33:50;;;;;;;1.90;1.35;;;;;;;;;;5120601;28;20207;-60
2022/01/05 09:36:20;;;;;;;4.90;1.70;;;;;;;;;;5121589;28;20199;-60
2022/01/05 09:44:14;;;;;;;3.97;1.85;;;;;;;;;;5120991;27;20209;-57
2022/01/05 09:46:56;;;;;;;4.78;1.70;;;;;;;;;;5125681;28;20510;-57
2022/01/05 09:49:27;;;;;;;4.85;2.20;;;;;;;;;;5117197;28;20209;-58
2022/01/05 09:51:55;;;;;;;2.33;1.50;;;;;;;;;;5117272;28;20423;-60
2022/01/05 09:54:23;;;;;;;2.45;1.80;;;;;;;;;;5119053;28;20214;-61
2022/01/05 09:56:49;;;;;;;5.95;1.77;;;;;;;;;;5115735;28;20231;-59
2022/01/05 09:59:16;;;;;;;5.28;1.50;;;;;;;;;;5116375;28;20227;-59
2022/01/05 10:01:43;;;;;;;3.83;1.73;;;;;;;;;;5116320;28;20274;-59
2022/01/05 10:04:13;;;;;;;6.68;1.70;;;;;;;;;;5116370;28;20229;-60
2022/01/05 10:06:40;;;;;;;3.97;1.75;;;;;;;;;;5115178;28;20207;-60
2022/01/05 10:09:07;;;;;;;4.80;1.92;;;;;;;;;;5119906;28;20198;-59
2022/01/05 10:11:34;;;;;;;4.88;1.92;;;;;;;;;;5136849;28;20273;-58
2022/01/05 10:14:01;;;;;;;4.00;1.40;;;;;;;;;;5136980;28;20213;-60
2022/01/05 10:16:27;;;;;;;5.97;1.63;;;;;;;;;;5118589;28;20214;-59
2022/01/05 10:18:54;;;;;;;5.43;1.73;;;;;;;;;;5116623;28;20496;-55
2022/01/05 10:21:22;;;;;;;3.55;1.50;;;;;;;;;;5116485;28;20262;-56
2022/01/05 10:23:49;;;;;;;6.15;1.50;;;;;;;;;;5116536;28;20430;-58
2022/01/05 10:26:23;;;;;;;2.55;1.70;;;;;;;;;;5123542;28;20206;-56
2022/01/05 10:28:50;;;;;;;6.93;1.95;;;;;;;;;;5127751;28;20270;-54
2022/01/05 10:31:17;;;;;;;4.72;1.50;;;;;;;;;;5136607;28;20207;-53
2022/01/05 10:33:43;;;;;;;5.22;1.60;;;;;;;;;;5136562;28;20213;-56
2022/01/05 10:36:10;;;;;;;5.05;2.05;;;;;;;;;;5124575;28;20248;-54
2022/01/05 10:38:38;;;;;;;9.77;2.30;;;;;;;;;;5117261;28;20406;-57
2022/01/05 10:41:19;;;;;;;6.57;2.42;;;;;;;;;;5119695;28;20227;-55
2022/01/05 10:44:00;;;;;;;6.50;2.30;;;;;;;;;;5117391;28;20207;-55
2022/01/05 10:46:33;;;;;;;7.50;2.10;;;;;;;;;;5115594;28;20222;-57
2022/01/05 10:49:00;;;;;;;6.07;1.88;;;;;;;;;;5119371;28;20542;-57
2022/01/05 10:51:29;;;;;;;3.40;1.50;;;;;;;;;;5119695;28;20248;-55
2022/01/05 10:54:10;;;;;;;3.58;1.63;;;;;;;;;;5119317;28;20202;-56
2022/01/05 10:56:38;;;;;;;6.07;1.75;;;;;;;;;;5118706;28;20239;-57
2022/01/05 10:59:04;;;;;;;7.25;1.85;;;;;;;;;;5113202;28;20220;-54
2022/01/05 11:01:32;;;;;;;8.30;1.80;;;;;;;;;;5105632;28;20571;-54
2022/01/05 11:03:58;;;;;;;5.35;1.75;;;;;;;;;;5102995;28;20199;-56
2022/01/05 11:06:25;;;;;;;8.18;1.80;;;;;;;;;;5117926;27;20648;-54
2022/01/05 11:08:52;;;;;;;6.38;1.80;;;;;;;;;;5120740;27;20239;-55
2022/01/05 11:11:29;;;;;;;6.40;1.60;;;;;;;;;;5140270;27;20422;-56
2022/01/05 11:13:57;;;;;;;3.85;1.67;;;;;;;;;;5140034;27;20206;-56
2022/01/05 11:16:25;;;;;;;6.32;1.80;;;;;;;;;;5126221;27;20207;-55
2022/01/05 11:19:11;;;;;;;5.50;1.90;;;;;;;;;;5118382;27;20444;-55
2022/01/05 11:21:38;;;;;;;6.68;1.83;;;;;;;;;;5118004;28;20535;-55
2022/01/05 11:24:05;;;;;;;7.90;1.55;;;;;;;;;;5118026;28;20821;-54
2022/01/05 11:26:35;;;;;;;3.67;1.60;;;;;;;;;;5118842;28;20515;-53
2022/01/05 11:29:04;;;;;;;4.30;1.42;;;;;;;;;;5118531;28;20264;-55
2022/01/05 11:31:31;;;;;;;5.65;2.25;;;;;;;;;;5119676;28;20234;-57
2022/01/05 11:33:58;;;;;;;3.92;1.40;;;;;;;;;;5119014;28;20511;-54
2022/01/05 11:36:24;;;;;;;5.15;1.63;;;;;;;;;;5118412;28;20207;-55
2022/01/05 11:38:51;;;;;;;6.95;2.35;;;;;;;;;;5118803;28;20207;-56
2022/01/05 11:41:17;;;;;;;3.85;1.70;;;;;;;;;;5118912;28;20260;-56
2022/01/05 11:43:44;;;;;;;5.32;1.90;;;;;;;;;;5119476;28;20214;-56
2022/01/05 11:46:16;;;;;;;6.65;1.90;;;;;;;;;;5118594;28;20226;-55
2022/01/05 11:48:57;;;;;;;6.32;1.83;;;;;;;;;;5119329;28;20412;-56
2022/01/05 11:51:29;;;;;;;3.67;1.65;;;;;;;;;;5117883;28;20218;-55
2022/01/05 11:54:12;;;;;;;3.22;1.80;;;;;;;;;;5119038;28;20417;-56
2022/01/05 11:56:40;;;;;;;5.10;1.70;;;;;;;;;;5118354;28;20511;-56
2022/01/05 11:59:18;;;;;;;9.40;1.67;;;;;;;;;;5118863;28;20215;-55
2022/01/05 12:01:57;;;;;;;6.25;1.50;;;;;;;;;;5118617;28;20250;-55
2022/01/05 12:04:23;;;;;;;6.20;1.73;;;;;;;;;;5118997;28;20406;-55
2022/01/05 12:07:07;;;;;;;3.95;2.00;;;;;;;;;;5118132;28;20210;-56
2022/01/05 12:09:34;;;;;;;6.47;1.63;;;;;;;;;;5125073;27;20209;-56
2022/01/05 12:12:03;;;;;;;6.22;1.95;;;;;;;;;;5125567;27;20214;-56
2022/01/05 12:14:45;;;;;;;9.00;2.00;;;;;;;;;;5118196;28;20268;-55
2022/01/05 12:17:13;;;;;;;6.40;1.67;;;;;;;;;;5117275;28;20207;-55
2022/01/05 12:19:55;;;;;;;4.63;1.52;;;;;;;;;;5118481;28;20241;-56
2022/01/05 12:22:24;;;;;;;3.95;1.52;;;;;;;;;;5118161;28;20203;-55
2022/01/05 12:25:12;;;;;;;5.00;1.92;;;;;;;;;;5117882;28;20207;-55
2022/01/05 12:27:38;;;;;;;4.72;2.03;;;;;;;;;;5112167;28;20530;-54
2022/01/05 12:30:20;;;;;;;7.28;1.73;;;;;;;;;;5116875;28;20203;-53
2022/01/05 12:32:48;;;;;;;4.90;1.85;;;;;;;;;;5117964;28;20213;-54
2022/01/05 12:35:17;;;;;;;5.18;1.83;;;;;;;;;;5117730;28;20214;-54
2022/01/05 12:37:45;;;;;;;6.50;1.50;;;;;;;;;;5118153;28;20219;-55
2022/01/05 12:40:28;;;;;;;6.47;1.98;;;;;;;;;;5117596;28;20272;-55
2022/01/05 12:43:09;;;;;;;6.93;1.92;;;;;;;;;;5117386;28;20499;-53
2022/01/05 12:45:49;;;;;;;5.57;1.83;;;;;;;;;;5115640;27;20237;-54
2022/01/05 12:48:30;;;;;;;6.78;2.10;;;;;;;;;;5118054;28;20206;-54
2022/01/05 12:51:22;;;;;;;6.30;1.60;;;;;;;;;;5117912;28;20386;-54
2022/01/05 12:53:52;;;;;;;5.63;1.85;;;;;;;;;;5116647;28;20465;-53
2022/01/05 12:56:19;;;;;;;5.07;2.15;;;;;;;;;;5115963;28;20230;-54
2022/01/05 12:58:47;;;;;;;4.07;1.60;;;;;;;;;;5117374;28;20225;-54
2022/01/05 13:01:13;;;;;;;7.90;1.70;;;;;;;;;;5117372;28;20484;-54
2022/01/05 13:03:40;;;;;;;7.07;1.90;;;;;;;;;;5117710;28;20452;-52
2022/01/05 13:06:18;;;;;;;4.47;1.67;;;;;;;;;;5117340;28;20260;-53
2022/01/05 13:08:48;;;;;;;5.22;1.88;;;;;;;;;;5116974;28;20214;-55
2022/01/05 13:11:14;;;;;;;6.10;1.65;;;;;;;;;;5115762;27;20195;-54
2022/01/05 13:13:43;;;;;;;6.30;1.52;;;;;;;;;;5127146;27;20514;-55
2022/01/05 13:16:10;;;;;;;9.70;1.65;;;;;;;;;;5121321;27;20217;-55
2022/01/05 13:18:36;;;;;;;8.10;2.17;;;;;;;;;;5117366;28;20247;-54
2022/01/05 13:21:03;;;;;;;7.35;1.73;;;;;;;;;;5117317;28;20230;-53
2022/01/05 13:23:30;;;;;;;6.40;1.95;;;;;;;;;;5117658;28;20320;-53
2022/01/05 13:25:57;;;;;;;7.40;1.63;;;;;;;;;;5117145;28;20203;-53
2022/01/05 13:28:23;;;;;;;4.28;1.95;;;;;;;;;;5116800;28;20203;-56
2022/01/05 13:30:50;;;;;;;6.60;1.90;;;;;;;;;;5117585;28;20511;-56
2022/01/05 13:33:16;;;;;;;4.18;1.50;;;;;;;;;;5117098;28;20207;-55
2022/01/05 13:35:43;;;;;;;6.13;1.52;;;;;;;;;;5116443;28;20211;-55
2022/01/05 13:38:12;;;;;;;7.00;1.83;;;;;;;;;;5117126;28;20214;-54
2022/01/05 13:40:41;;;;;;;9.32;1.70;;;;;;;;;;5117018;28;20225;-55
2022/01/05 13:43:08;;;;;;;3.75;1.52;;;;;;;;;;5116892;28;20320;-54
2022/01/05 13:45:36;;;;;;;5.80;1.95;;;;;;;;;;5115706;28;20219;-56
2022/01/05 13:48:04;;;;;;;4.60;1.40;;;;;;;;;;5116949;28;20546;-54
2022/01/05 13:50:34;;;;;;;4.95;1.40;;;;;;;;;;5117313;28;20203;-54
2022/01/05 13:53:01;;;;;;;4.93;1.75;;;;;;;;;;5117260;28;20203;-55
2022/01/05 13:55:29;;;;;;;5.95;2.00;;;;;;;;;;5117084;28;20435;-53
2022/01/05 13:58:04;;;;;;;4.40;1.58;;;;;;;;;;5116973;28;20207;-54
2022/01/05 14:00:30;;;;;;;5.93;1.40;;;;;;;;;;5105505;28;20233;-55
2022/01/05 14:02:57;;;;;;;5.20;1.48;;;;;;;;;;5116658;28;20238;-57
2022/01/05 14:05:24;;;;;;;5.82;1.70;;;;;;;;;;5116733;28;20213;-56
2022/01/05 14:08:01;;;;;;;5.50;2.15;;;;;;;;;;5116634;28;20214;-56
2022/01/05 14:10:30;;;;;;;4.43;1.75;;;;;;;;;;5132136;28;20466;-57
2022/01/05 14:13:01;;;;;;;6.07;1.58;;;;;;;;;;5126664;27;20207;-54
2022/01/05 14:15:29;;;;;;;12.45;2.17;;;;;;;;;;5120509;28;20611;-56
2022/01/05 14:17:59;;;;;;;6.50;2.13;;;;;;;;;;5120554;28;20214;-57
2022/01/05 14:20:26;;;;;;;9.63;2.42;;;;;;;;;;5121273;28;20199;-56
2022/01/05 14:23:03;;;;;;;20.75;4.03;;;;;;;;;;5120449;28;20214;-56
2022/01/05 14:25:40;;;;;;;5.00;2.03;;;;;;;;;;5120591;28;20207;-54
2022/01/05 14:28:14;;;;;;;8.27;2.65;;;;;;;;;;5120466;28;20206;-56
2022/01/05 14:30:49;;;;;;;5.30;2.10;;;;;;;;;;5119228;28;20556;-54
2022/01/05 14:33:25;;;;;;;3.92;1.52;;;;;;;;;;5120723;28;20214;-55
2022/01/05 14:35:51;;;;;;;3.53;1.40;;;;;;;;;;5118875;28;20207;-55
2022/01/05 14:38:18;;;;;;;2.35;1.77;;;;;;;;;;5119802;28;20248;-56
2022/01/05 14:40:44;;;;;;;5.07;1.67;;;;;;;;;;5119673;28;20752;-54
2022/01/05 14:43:14;;;;;;;5.30;1.70;;;;;;;;;;5120196;28;20214;-55
2022/01/05 14:45:42;;;;;;;4.97;1.98;;;;;;;;;;5119273;28;20219;-57
2022/01/05 14:48:10;;;;;;;4.13;1.48;;;;;;;;;;5120190;28;20203;-56
2022/01/05 14:50:38;;;;;;;7.88;1.75;;;;;;;;;;5120350;28;20207;-55
2022/01/05 14:53:04;;;;;;;5.88;1.63;;;;;;;;;;5120545;27;20507;-55